Pagina principală
METAR-TAF:

METAR-TAF

Aeroporturi :

Kake, Alaska, Statele Unite ale Americii

Latitudine: 56-57N, longitudine: 133-54W, elevație: 52 m

Observații meteo curente

Raportul a fost făcut în urmă cu 25 de minute, la 06:56 UTC
Vânt 4 kt de la Est
Temperatură 13°C
Umiditate 82%
Presiune 1014 hPa
Vizibilitate: 16.1 km
Total acoperit la o înălțime de 7000 picior

METAR: PAFE 240656Z AUTO 09004KT 10SM OVC070 13/10 A2995 RMK AO2 SLP153 T01330100

Ora: 23:21 (07:21 UTC)


TAF: lipsă

Observații și prognoze meteo pentru peste 4.000 de aeroporturi (rapoarte METAR și TAF).

Stațiile disponibile sunt reprezentate pe hartă prin puncte galbene și roșii.

Țineți indicatorul mouse-ului pe punctul dorit pentru a vedea denumirea stației.

Apoi, faceți clic pentru a vedea observațiile și prognozele meteorologice.

Pentru a schimba harta: Pentru mărire, faceți clic pe butoanele verzi cu cruce neagră; pentru micșorare, pe butonul verde cu o liniuță; pentru hărți învecinate, pe săgețile verzi.


METAR-TAF: